Terminal Aerodrome Forecast
Issued by NWS

Home | Current Version | Previous Version | Text Only | Print | Product List | Glossary On
Versions: 1 2 3 4 5 6 7 8 9 10 11 12 13 14
298
FTUS43 KFGF 311730 AAA
TAFBJI
TAF AMD
KBJI 311730Z 3118/0118 15011KT P6SM VCSH OVC007
     FM311900 15011KT P6SM VCSH BKN015
     FM312000 16010KT P6SM VCSH BKN025
     FM010300 21008KT P6SM VCSH BKN040
     FM010600 17007KT P6SM VCSH BKN040
     FM011000 21006KT P6SM VCSH BKN025
     FM011200 22007KT P6SM VCSH OVC010
     FM011500 25010KT P6SM VCSH OVC015=

USA.gov is the U.S. government's official web portal to all federal, state and local government web resources and services.